Atomic City, Idaho
Current Conditions -  °F | °C
As of 10:43 PM on Saturday 25 Oct 2014 (Local Time) from KIDA Reporting Station
Moderate Rain Moderate Rain  
Wind Chill: 58°   Ceiling: 7000
Heat Index: 58°   Visibility: 8mi
Dew Point: 41°   Wind: 12mph
Humidity: 53%   Direction: 230°SW
Pressure: 29.84"   Gusts: 23mph
Location:  43.44°N, 112.81°W
Report Text: KIDA 260443Z AUTO 23010G20KT 8SM RA BKN070 BKN080 OVC100 14/05 A2984 RMK AO2 WSHFT 0423 LTG DSNT S RAB22 P0002 T01440050
Loading
Personal Weather Stations






























Interactive Weather Map
Tropical Storm Tracking
New forecast layout! Learn more

10-Day Weather Forecast

Advertisements
Track Severe Weather on mobile